Spencer, WI (54479)

7:01 PM CDT on April 23, 2017 (GMT -0500)
Rural | | Change Station

Elev 1210 ft 44.75 °N, 90.14 °W | Updated 56 seconds ago

Partly Cloudy
Partly Cloudy
59.3 °F
Feels Like 59.3 °F
N
10.0
Wind Variable Wind from SE

Today
High -- | Low -- °F
--% Chance of Precip.
Yesterday
High -- | Low -- °F
Precip. -- in
Pressure 29.98 in
Visibility 10.0 miles
Clouds Few 8000 ft
Dew Point 49 °F
Humidity 69%
Rainfall 0.00 in
Snow Depth Not available.
6:02 AM 7:56 PM
Waning Crescent, 9% visible
METAR KMFI 232354Z AUTO 13013G20KT 10SM FEW080 15/06 A2997 RMK AO2 SLP152 T01500061 10200 20150 55005
Pressure 29.98 in
Visibility 10.0 miles
Clouds Few 8000 ft
Dew Point 49 °F
Humidity 69%
Rainfall 0.00 in
Snow Depth Not available.
6:02 AM 7:56 PM
Waning Crescent, 9% visible
METAR KMFI 232354Z AUTO 13013G20KT 10SM FEW080 15/06 A2997 RMK AO2 SLP152 T01500061 10200 20150 55005

Get Severe Weather Alerts

Thanks for signing up!

Be on the lookout for a verification email in your inbox.

You'll start receiving the daily forecast at 8 AM.

×

10-Day Weather Forecast

Almanac

Astronomy

Apr. 23, 2017 Rise Set
Actual Time
Civil Twilight
Nautical Twilight
Astronomical Twilight
Moon
Length of Visible Light
Length of Day
Tomorrow will be .
, % of the Moon is Illuminated

Today's Extremes

State Highs State Lows

Community

WunderPhotos

WunderBlog® & News

Nearby

Air Quality

  Air Quality AQ Index Pollutant
Not available.

Snow Depth

Station Depth Elevation

Earthquake Activity

City Distance Mag. Time & Date
Minimum magnitude displayed is 2.5.

Coastal Water Temperatures

Place Temperature

Stations

Nearby Weather Stations

Station Location Temp. Windchill Dew Point Humidity Wind Precip. Elev Updated Type
                   

Watches & Warnings

There are currently no watches in effect.